Time;durP1;ratioP1;P1;durP2;ratioP2;P2;SDS_P1;SDS_P2;PMS_P1;PMS_P2;Temp;Humidity;BMP_temperature;BMP_pressure;BME280_temperature;BME280_humidity;BME280_pressure;Samples;Min_cycle;Max_cycle;Signal;HPM_P1;HPM_P2
2022/05/07 01:51:29;;;;;;;;;;;;;;;18.78;52.65;99970.63;5396733;26;20034;-92
2022/05/07 01:55:02;;;;;;;;;;;;;;;19.03;51.78;99969.56;5392610;26;34895;-93
2022/05/07 01:58:55;;;;;;;;;;;;;;;;;;;;;
2022/05/07 02:01:52;;;;;;;;;;;;;;;18.94;51.81;99970.78;5403374;26;36359;-93
2022/05/07 02:04:26;;;;;;;;;;;;;;;18.95;51.54;99962.84;5410625;26;33735;-93
2022/05/07 02:06:56;;;;;;;;;;;;;;;19.01;51.40;99971.37;5410179;26;33713;-93
2022/05/07 02:09:26;;;;;;;;;;;;;;;19.00;51.31;99973.16;5403438;26;33906;-93
2022/05/07 02:11:54;;;;;;;;;;;;;;;18.94;51.24;99976.03;5405263;26;34265;-92
2022/05/07 02:14:23;;;;;;;;;;;;;;;18.83;51.59;99970.41;5404093;26;34005;-92
2022/05/07 02:16:52;;;;;;;;;;;;;;;18.63;51.52;99966.84;5404667;26;33641;-92
2022/05/07 02:19:20;;;;;;;;;;;;;;;18.89;51.23;99964.88;5410917;26;33836;-93
2022/05/07 02:21:49;;;;;;;;;;;;;;;18.59;52.13;99959.12;5404929;26;33236;-93
2022/05/07 02:24:19;;;;;;;;;;;;;;;18.64;52.21;99963.28;5406316;26;35064;-91
2022/05/07 02:26:47;;;;;;;;;;;;;;;18.69;51.81;99963.94;5414367;26;33698;-93
2022/05/07 02:29:16;;;;;;;;;;;;;;;18.72;51.95;99963.78;5387271;26;34955;-92
2022/05/07 02:32:03;;;;;;;;;;;;;;;18.66;51.77;99964.06;5388458;26;34624;-92
2022/05/07 02:34:33;;;;;;;;;;;;;;;18.48;52.33;99970.06;5408268;26;33974;-93
2022/05/07 02:37:02;;;;;;;;;;;;;;;18.46;52.44;99974.53;5404260;26;33080;-92
2022/05/07 02:39:34;;;;;;;;;;;;;;;18.60;51.98;99963.47;5403281;26;34546;-93
2022/05/07 02:44:51;;;;;;;;;;;;;;;18.38;52.52;99963.50;5411127;26;34196;-93
2022/05/07 02:47:19;;;;;;;;;;;;;;;18.47;52.25;99960.50;5411295;26;33130;-92
2022/05/07 02:49:48;;;;;;;;;;;;;;;18.62;51.74;99965.09;5405848;26;33523;-92
2022/05/07 02:52:16;;;;;;;;;;;;;;;18.53;51.98;99963.72;5406205;26;34647;-93
2022/05/07 02:54:47;;;;;;;;;;;;;;;18.49;51.96;99967.41;5406185;26;34664;-92
2022/05/07 02:57:16;;;;;;;;;;;;;;;18.32;52.43;99957.59;5386278;26;33602;-92
2022/05/07 02:59:45;;;;;;;;;;;;;;;18.29;52.26;99960.34;5410745;26;33777;-94
2022/05/07 03:02:14;;;;;;;;;;;;;;;18.47;51.81;99963.13;5384946;26;33859;-93
2022/05/07 03:04:42;;;;;;;;;;;;;;;18.39;52.29;99968.69;5406968;26;34212;-92
2022/05/07 03:07:11;;;;;;;;;;;;;;;18.43;52.08;99970.25;5409723;26;33153;-91
2022/05/07 03:09:39;;;;;;;;;;;;;;;18.33;52.51;99969.78;5409635;26;35156;-93
2022/05/07 03:12:11;;;;;;;;;;;;;;;18.49;52.12;99966.56;5410873;26;35121;-93
2022/05/07 03:14:40;;;;;;;;;;;;;;;18.60;52.03;99972.19;5405362;26;34723;-93
2022/05/07 03:17:09;;;;;;;;;;;;;;;18.47;52.05;99976.25;5406100;26;32821;-93
2022/05/07 03:19:37;;;;;;;;;;;;;;;18.48;52.31;99978.84;5405925;26;34830;-93
2022/05/07 03:22:06;;;;;;;;;;;;;;;18.39;52.74;99973.06;5406334;26;33825;-93
2022/05/07 03:24:37;;;;;;;;;;;;;;;18.47;52.25;99973.62;5410669;26;33998;-92
2022/05/07 03:27:07;;;;;;;;;;;;;;;18.40;52.35;99975.66;5386654;26;34952;-92
2022/05/07 03:29:40;;;;;;;;;;;;;;;18.34;52.72;99975.91;5405730;26;34873;-93
2022/05/07 03:32:10;;;;;;;;;;;;;;;18.31;52.76;99968.13;5405270;26;34264;-92
2022/05/07 03:34:43;;;;;;;;;;;;;;;18.51;52.02;99969.97;5405574;26;33968;-92
2022/05/07 03:37:12;;;;;;;;;;;;;;;18.39;52.58;99968.69;5405669;26;33189;-93
2022/05/07 03:39:42;;;;;;;;;;;;;;;18.46;52.11;99969.28;5410410;26;34055;-92
2022/05/07 03:42:10;;;;;;;;;;;;;;;18.32;52.67;99978.59;5405582;26;33662;-92
2022/05/07 03:44:40;;;;;;;;;;;;;;;18.05;53.36;99972.69;5405025;26;34437;-93
2022/05/07 03:47:08;;;;;;;;;;;;;;;18.07;53.28;99980.47;5405479;26;33815;-92
2022/05/07 03:49:37;;;;;;;;;;;;;;;17.62;54.20;99973.44;5405831;26;34254;-92
2022/05/07 03:54:53;;;;;;;;;;;;;;;17.76;53.91;99975.53;5411190;26;34723;-92
2022/05/07 03:57:23;;;;;;;;;;;;;;;17.69;54.36;99985.44;5405746;26;33439;-93
2022/05/07 03:59:53;;;;;;;;;;;;;;;17.58;54.78;99977.94;5405604;26;34502;-92
2022/05/07 04:02:22;;;;;;;;;;;;;;;17.77;54.28;99985.13;5406220;26;34278;-92
2022/05/07 04:04:52;;;;;;;;;;;;;;;18.07;53.46;99983.09;5405327;26;34895;-93
2022/05/07 04:07:20;;;;;;;;;;;;;;;18.00;53.79;99990.38;5411301;26;33451;-93
2022/05/07 04:09:54;;;;;;;;;;;;;;;18.20;53.25;99986.13;5405854;26;33848;-91
2022/05/07 04:12:23;;;;;;;;;;;;;;;18.21;53.33;99987.81;5405211;26;34870;-92
2022/05/07 04:14:53;;;;;;;;;;;;;;;18.31;53.06;99987.41;5405605;26;34268;-92
2022/05/07 04:17:21;;;;;;;;;;;;;;;18.16;53.61;99982.75;5405453;26;33785;-92
2022/05/07 04:19:51;;;;;;;;;;;;;;;17.88;53.90;99983.84;5411206;26;33813;-92
2022/05/07 04:22:19;;;;;;;;;;;;;;;17.92;54.18;99992.44;5406462;26;34970;-91
2022/05/07 04:24:48;;;;;;;;;;;;;;;17.95;54.11;99983.59;5405365;26;34101;-92
2022/05/07 04:27:17;;;;;;;;;;;;;;;18.09;53.42;99990.00;5404943;26;34336;-93
2022/05/07 04:29:49;;;;;;;;;;;;;;;18.08;53.67;99987.47;5385168;26;33846;-92
2022/05/07 04:32:19;;;;;;;;;;;;;;;18.07;53.62;99989.22;5405598;26;34260;-92
2022/05/07 04:34:49;;;;;;;;;;;;;;;18.02;53.81;99992.94;5409465;26;33895;-92
2022/05/07 04:37:18;;;;;;;;;;;;;;;17.65;54.93;99989.06;5404474;26;33765;-92
2022/05/07 04:39:47;;;;;;;;;;;;;;;17.94;54.01;99992.38;5404517;26;34394;-93
2022/05/07 04:42:15;;;;;;;;;;;;;;;18.13;53.61;99993.37;5404687;26;33988;-93
2022/05/07 04:44:45;;;;;;;;;;;;;;;18.15;53.73;99995.97;5390022;26;33167;-92
2022/05/07 04:47:15;;;;;;;;;;;;;;;17.99;54.00;99995.69;5405538;26;33128;-92
2022/05/07 04:49:45;;;;;;;;;;;;;;;17.85;54.10;99997.06;5405441;26;34769;-93
2022/05/07 04:52:14;;;;;;;;;;;;;;;17.81;54.01;99994.63;5405718;26;35928;-93
2022/05/07 04:54:43;;;;;;;;;;;;;;;17.40;55.63;99991.75;5405552;26;33956;-93
2022/05/07 04:57:18;;;;;;;;;;;;;;;17.49;55.46;99994.91;5375023;26;787335;-92
2022/05/07 04:59:47;;;;;;;;;;;;;;;17.74;54.88;99996.59;5410747;26;33926;-93
2022/05/07 05:02:15;;;;;;;;;;;;;;;17.52;55.63;100000.91;5405927;26;34912;-92
2022/05/07 05:04:47;;;;;;;;;;;;;;;17.83;55.03;99993.66;5409235;26;33814;-93
2022/05/07 05:07:16;;;;;;;;;;;;;;;17.93;54.74;99996.78;5406032;26;33578;-93
2022/05/07 05:09:46;;;;;;;;;;;;;;;18.00;54.57;99997.38;5405947;26;34840;-93
2022/05/07 05:12:15;;;;;;;;;;;;;;;18.02;54.55;99996.41;5410345;26;34269;-92
2022/05/07 05:17:33;;;;;;;;;;;;;;;18.24;54.04;99999.06;5405677;26;33094;-92
2022/05/07 05:20:10;;;;;;;;;;;;;;;18.29;53.91;100004.13;5405808;26;35148;-93
2022/05/07 05:22:47;;;;;;;;;;;;;;;18.43;53.80;100003.56;5408107;26;35178;-93
2022/05/07 05:25:16;;;;;;;;;;;;;;;18.37;53.89;100004.69;5406072;26;34585;-93
2022/05/07 05:27:45;;;;;;;;;;;;;;;18.41;53.73;100008.03;5411312;26;34053;-93
2022/05/07 05:30:14;;;;;;;;;;;;;;;18.26;54.29;99999.00;5405299;26;35328;-93
2022/05/07 05:32:50;;;;;;;;;;;;;;;18.05;54.94;100009.44;5406103;26;34979;-93
2022/05/07 05:35:19;;;;;;;;;;;;;;;17.95;55.28;100001.97;5384939;26;35230;-92
2022/05/07 05:37:50;;;;;;;;;;;;;;;18.26;54.73;100010.34;5384807;26;34349;-92
2022/05/07 05:40:19;;;;;;;;;;;;;;;18.30;54.90;100009.31;5405472;26;34433;-93
2022/05/07 05:42:48;;;;;;;;;;;;;;;18.62;53.77;100007.16;5413381;26;34823;-92
2022/05/07 05:45:17;;;;;;;;;;;;;;;18.73;53.51;100010.19;5406895;26;34635;-92
2022/05/07 05:47:47;;;;;;;;;;;;;;;18.65;53.48;100009.66;5405529;26;33854;-93
2022/05/07 05:50:16;;;;;;;;;;;;;;;18.74;53.18;100014.53;5405660;26;35158;-93
2022/05/07 05:52:46;;;;;;;;;;;;;;;18.60;53.81;100011.59;5405317;26;36156;-92
2022/05/07 05:55:16;;;;;;;;;;;;;;;18.94;53.40;100016.37;5390133;26;34328;-92
2022/05/07 05:57:49;;;;;;;;;;;;;;;18.94;53.34;100015.47;5406256;26;33700;-93
2022/05/07 06:00:18;;;;;;;;;;;;;;;18.81;53.20;100009.06;5405718;26;36440;-93
2022/05/07 06:02:48;;;;;;;;;;;;;;;18.79;52.83;100019.63;5385307;26;35202;-93
2022/05/07 06:05:17;;;;;;;;;;;;;;;18.97;52.41;100013.59;5405568;26;36227;-93
2022/05/07 06:07:52;;;;;;;;;;;;;;;19.44;51.50;100016.84;5386315;26;36086;-93
2022/05/07 06:10:23;;;;;;;;;;;;;;;18.96;52.70;100016.28;5409964;26;35377;-93
2022/05/07 06:12:52;;;;;;;;;;;;;;;19.42;51.68;100016.06;5383366;26;35243;-93
2022/05/07 06:15:21;;;;;;;;;;;;;;;19.09;51.91;100014.84;5405347;26;34801;-93
2022/05/07 06:17:51;;;;;;;;;;;;;;;19.26;52.03;100018.53;5384676;26;34125;-93
2022/05/07 06:20:22;;;;;;;;;;;;;;;19.21;52.38;100021.34;5385356;26;34398;-93
2022/05/07 06:22:53;;;;;;;;;;;;;;;19.31;51.72;100017.41;5410323;26;33892;-93
2022/05/07 06:33:29;;;;;;;;;;;;;;;19.45;51.50;100027.31;5237962;27;33470;-92
2022/05/07 07:16:05;;;;;;;;;;;;;;;20.04;50.20;100030.78;5146117;27;34100;-92
2022/05/07 07:18:34;;;;;;;;;;;;;;;19.99;50.56;100031.00;5203699;27;34097;-92
2022/05/07 07:21:03;;;;;;;;;;;;;;;20.42;49.46;100028.97;5209909;27;34091;-92
2022/05/07 07:23:32;;;;;;;;;;;;;;;20.56;49.65;100035.38;5203705;27;33869;-92
2022/05/07 07:26:01;;;;;;;;;;;;;;;20.55;49.17;100034.53;5203575;27;34401;-92
2022/05/07 07:28:29;;;;;;;;;;;;;;;20.30;50.15;100036.63;5242444;27;32976;-92
2022/05/07 07:30:58;;;;;;;;;;;;;;;20.83;48.49;100033.19;5278225;27;33199;-92
2022/05/07 07:33:28;;;;;;;;;;;;;;;20.50;49.22;100035.66;5298241;26;34283;-93
2022/05/07 07:35:56;;;;;;;;;;;;;;;21.17;48.08;100031.47;5381923;26;36306;-92
2022/05/07 07:38:27;;;;;;;;;;;;;;;21.15;48.39;100039.44;5360877;26;33561;-94
2022/05/07 07:40:56;;;;;;;;;;;;;;;20.93;49.33;100041.47;5381276;26;35133;-93
2022/05/07 07:43:25;;;;;;;;;;;;;;;21.51;47.54;100039.34;5381935;26;34879;-92
2022/05/07 07:48:41;;;;;;;;;;;;;;;21.55;47.37;100041.81;5386975;26;33407;-92
2022/05/07 07:51:10;;;;;;;;;;;;;;;21.63;46.84;100040.47;5382104;26;34289;-95
2022/05/07 07:53:39;;;;;;;;;;;;;;;21.74;46.08;100038.09;5396311;26;34936;-93
2022/05/07 07:56:08;;;;;;;;;;;;;;;21.06;47.79;100042.53;5384309;26;34524;-92
2022/05/07 07:58:37;;;;;;;;;;;;;;;21.34;46.76;100042.00;5405419;26;32356;-92
2022/05/07 08:01:05;;;;;;;;;;;;;;;21.24;47.82;100040.75;5409827;26;33758;-93
2022/05/07 08:03:35;;;;;;;;;;;;;;;20.80;47.53;100046.50;5404308;26;35251;-92
2022/05/07 08:06:05;;;;;;;;;;;;;;;20.38;49.14;100042.38;5405889;26;34146;-95
2022/05/07 08:11:41;;;;;;;;;;;;;;;21.32;47.13;100046.50;5405229;26;33834;-94
2022/05/07 08:14:09;;;;;;;;;;;;;;;21.17;47.45;100036.75;5405083;26;35069;-93
2022/05/07 08:16:41;;;;;;;;;;;;;;;21.37;47.17;100043.63;5406000;26;34382;-93
2022/05/07 08:19:12;;;;;;;;;;;;;;;21.58;46.20;100042.50;5410612;26;34078;-92
2022/05/07 08:21:45;;;;;;;;;;;;;;;21.33;47.16;100036.78;5406567;26;34240;-92
2022/05/07 08:24:14;;;;;;;;;;;;;;;21.62;46.71;100044.03;5404502;26;34712;-92
2022/05/07 08:26:43;;;;;;;;;;;;;;;21.80;46.06;100044.84;5405638;26;34576;-93
2022/05/07 08:29:11;;;;;;;;;;;;;;;21.84;46.51;100045.53;5405218;26;33201;-93
2022/05/07 08:31:41;;;;;;;;;;;;;;;22.13;46.04;100050.09;5410605;26;33994;-93
2022/05/07 08:34:09;;;;;;;;;;;;;;;22.03;46.06;100054.16;5404481;26;33918;-92
2022/05/07 08:36:38;;;;;;;;;;;;;;;22.14;45.49;100046.50;5404645;26;34740;-91
2022/05/07 08:39:08;;;;;;;;;;;;;;;22.78;44.03;100051.75;5404729;26;33057;-93
2022/05/07 08:41:36;;;;;;;;;;;;;;;22.33;44.87;100050.81;5404870;26;34065;-93
2022/05/07 08:44:05;;;;;;;;;;;;;;;22.22;44.95;100046.09;5411595;26;34923;-93
2022/05/07 08:46:33;;;;;;;;;;;;;;;21.82;45.52;100052.69;5404862;26;34234;-93
2022/05/07 08:49:02;;;;;;;;;;;;;;;22.29;44.52;100051.91;5404289;26;33122;-94
2022/05/07 08:51:31;;;;;;;;;;;;;;;22.74;44.37;100055.53;5405506;26;34038;-93
2022/05/07 08:54:00;;;;;;;;;;;;;;;22.90;43.97;100056.31;5407354;26;33926;-93
2022/05/07 08:56:30;;;;;;;;;;;;;;;23.08;43.35;100054.44;5406329;26;34338;-95
2022/05/07 08:58:58;;;;;;;;;;;;;;;22.94;43.69;100057.00;5410787;26;33146;-93
2022/05/07 09:01:27;;;;;;;;;;;;;;;22.55;43.64;100056.56;5406320;26;34230;-93
2022/05/07 09:03:56;;;;;;;;;;;;;;;23.19;42.11;100048.47;5385638;26;33257;-93
2022/05/07 09:06:25;;;;;;;;;;;;;;;23.19;43.13;100054.63;5405540;26;34707;-92
2022/05/07 09:08:53;;;;;;;;;;;;;;;23.46;42.03;100051.25;5407801;26;33137;-93
2022/05/07 09:11:22;;;;;;;;;;;;;;;23.80;40.80;100054.50;5411052;26;34450;-93
2022/05/07 09:14:01;;;;;;;;;;;;;;;23.34;41.18;100052.88;5404548;26;33921;-93
2022/05/07 09:16:43;;;;;;;;;;;;;;;23.50;41.23;100054.56;5411474;26;34459;-92
2022/05/07 09:19:21;;;;;;;;;;;;;;;23.81;40.81;100043.81;5406227;26;33706;-93
2022/05/07 09:21:51;;;;;;;;;;;;;;;24.00;38.48;100047.97;5405869;26;33908;-93
2022/05/07 09:24:22;;;;;;;;;;;;;;;23.98;39.00;100048.06;5405294;26;34173;-93
2022/05/07 09:26:51;;;;;;;;;;;;;;;24.16;38.62;100051.34;5410854;26;35369;-92
2022/05/07 09:29:21;;;;;;;;;;;;;;;23.82;37.16;100048.19;5404829;26;33225;-94
2022/05/07 09:31:50;;;;;;;;;;;;;;;24.15;38.17;100048.78;5384736;26;33928;-93
2022/05/07 09:37:16;;;;;;;;;;;;;;;23.82;37.51;100039.38;5408532;26;33484;-93
2022/05/07 09:39:46;;;;;;;;;;;;;;;23.25;38.47;100034.03;5406041;26;33203;-93
2022/05/07 09:42:14;;;;;;;;;;;;;;;23.69;37.91;100033.13;5409642;26;34742;-93
2022/05/07 09:44:44;;;;;;;;;;;;;;;23.54;38.38;100029.63;5405064;26;34270;-93
2022/05/07 09:47:13;;;;;;;;;;;;;;;23.37;39.25;100034.16;5404679;26;34212;-92
2022/05/07 09:50:20;;;;;;;;;;;;;;;23.81;38.51;100024.44;5404347;26;33783;-93
2022/05/07 09:52:34;;;;;;;;;;;;;;;23.56;38.44;100023.28;5405050;26;34588;-93
2022/05/07 09:57:54;;;;;;;;;;;;;;;24.22;38.47;100020.94;5383962;26;34563;-94
2022/05/07 10:00:25;;;;;;;;;;;;;;;24.44;38.15;100020.37;5389141;26;33049;-93
2022/05/07 10:02:59;;;;;;;;;;;;;;;24.35;36.29;100013.87;5406052;26;34921;-94
2022/05/07 10:05:47;;;;;;;;;;;;;;;24.19;36.73;100016.69;5383685;26;34661;-93
2022/05/07 10:08:26;;;;;;;;;;;;;;;24.87;36.51;100010.44;5403157;26;34454;-93
2022/05/07 10:11:05;;;;;;;;;;;;;;;24.18;36.66;100008.81;5405433;26;33631;-93
2022/05/07 10:13:34;;;;;;;;;;;;;;;24.54;35.41;100015.34;5405114;26;34115;-93
2022/05/07 10:16:07;;;;;;;;;;;;;;;24.05;36.19;100004.31;5388589;26;34291;-92
2022/05/07 10:18:45;;;;;;;;;;;;;;;24.68;36.75;100005.53;5389493;26;33000;-93
2022/05/07 10:21:24;;;;;;;;;;;;;;;24.54;35.49;100007.41;5383824;26;36282;-92
2022/05/07 10:24:23;;;;;;;;;;;;;;;25.14;34.85;99993.59;5386019;26;34925;-95
2022/05/07 10:27:01;;;;;;;;;;;;;;;24.88;35.35;99995.38;5406285;26;33912;-94
2022/05/07 10:29:39;;;;;;;;;;;;;;;25.35;35.20;99993.97;5406898;26;34427;-93
2022/05/07 10:32:22;;;;;;;;;;;;;;;24.98;34.85;99995.59;5404880;26;34025;-95
2022/05/07 10:34:56;;;;;;;;;;;;;;;25.44;35.00;99993.31;5406000;26;33820;-92
2022/05/07 10:37:30;;;;;;;;;;;;;;;25.94;33.78;99994.19;5389499;26;33992;-93
2022/05/07 10:43:51;;;;;;;;;;;;;;;25.81;31.95;99988.03;5391932;26;33296;-93
2022/05/07 10:47:19;;;;;;;;;;;;;;;26.42;32.77;99980.06;5391419;26;35071;-93
2022/05/07 10:54:43;;;;;;;;;;;;;;;26.24;32.04;99979.63;5230383;27;35808;-91
2022/05/07 10:57:59;;;;;;;;;;;;;;;25.89;33.10;99977.72;5188812;27;32876;-93
2022/05/07 11:00:58;;;;;;;;;;;;;;;26.22;31.93;99976.22;5229007;27;34993;-91
2022/05/07 11:03:44;;;;;;;;;;;;;;;26.07;33.34;99986.19;5229483;27;36336;-93
2022/05/07 11:06:47;;;;;;;;;;;;;;;26.18;33.01;99964.94;5213176;27;34670;-93
2022/05/07 11:09:25;;;;;;;;;;;;;;;26.60;33.15;99967.19;5276301;26;33651;-93
2022/05/07 11:11:58;;;;;;;;;;;;;;;26.59;32.76;99973.50;5337999;26;34089;-93
2022/05/07 11:14:37;;;;;;;;;;;;;;;26.38;33.19;99971.44;5337584;26;34213;-93
2022/05/07 11:17:17;;;;;;;;;;;;;;;26.37;31.37;99969.75;5323870;26;33037;-93
2022/05/07 11:19:46;;;;;;;;;;;;;;;25.98;30.46;99967.41;5319182;26;34887;-92
2022/05/07 11:22:30;;;;;;;;;;;;;;;26.53;29.82;99963.28;5338434;26;34589;-93
2022/05/07 11:25:08;;;;;;;;;;;;;;;26.69;30.00;99969.16;5357867;26;33549;-91
2022/05/07 11:28:00;;;;;;;;;;;;;;;26.88;30.56;99965.13;5408081;26;36305;-92
2022/05/07 11:31:00;;;;;;;;;;;;;;;;;;;;;
2022/05/07 11:33:31;;;;;;;;;;;;;;;26.39;32.35;99967.84;5407621;26;34997;-93
2022/05/07 11:36:22;;;;;;;;;;;;;;;26.48;33.29;99961.00;5408592;26;33990;-96
2022/05/07 11:39:23;;;;;;;;;;;;;;;26.18;33.12;99956.13;5414211;26;33583;-93
2022/05/07 11:42:10;;;;;;;;;;;;;;;26.53;32.87;99956.19;5411336;26;34676;-93
2022/05/07 11:51:59;;;;;;;;;;;;;;;27.15;29.60;99946.13;5388546;26;34838;-91
2022/05/07 11:59:01;;;;;;;;;;;;;;;27.33;31.64;99946.53;5398500;26;33296;-93
2022/05/07 12:19:27;;;;;;;;;;;;;;;28.46;27.89;99924.03;5229762;27;35011;-93
2022/05/07 12:31:33;;;;;;;;;;;;;;;29.19;27.90;99918.72;5212435;27;34098;-91
2022/05/07 12:34:10;;;;;;;;;;;;;;;29.77;27.00;99918.91;5231687;27;33029;-94
2022/05/07 12:36:42;;;;;;;;;;;;;;;29.54;26.92;99912.91;5230695;27;34189;-93
2022/05/07 12:39:33;;;;;;;;;;;;;;;29.77;27.39;99912.72;5211670;27;35152;-92
2022/05/07 12:42:04;;;;;;;;;;;;;;;30.01;26.48;99915.00;5226569;27;34634;-92
2022/05/07 12:44:33;;;;;;;;;;;;;;;30.24;26.31;99914.72;5240394;27;33436;-94
2022/05/07 12:47:02;;;;;;;;;;;;;;;30.41;24.64;99909.50;5268580;27;34256;-92
2022/05/07 12:49:31;;;;;;;;;;;;;;;30.41;25.38;99901.47;5396031;26;34868;-93
2022/05/07 12:52:07;;;;;;;;;;;;;;;30.63;24.90;99894.13;5411625;26;34782;-93
2022/05/07 12:54:36;;;;;;;;;;;;;;;30.82;24.86;99895.91;5406889;26;34018;-93
2022/05/07 12:57:07;;;;;;;;;;;;;;;30.90;25.17;99901.41;5384848;26;34797;-92
2022/05/07 12:59:36;;;;;;;;;;;;;;;31.00;25.24;99904.03;5404668;26;34974;-92
2022/05/07 13:02:06;;;;;;;;;;;;;;;31.12;23.93;99896.66;5404691;26;34574;-95
2022/05/07 13:04:35;;;;;;;;;;;;;;;31.16;23.56;99898.91;5411908;26;33785;-93
2022/05/07 13:10:11;;;;;;;;;;;;;;;31.27;24.19;99892.53;5411275;26;35374;-91
2022/05/07 13:12:46;;;;;;;;;;;;;;;31.38;23.64;99886.09;5410644;26;34306;-92
2022/05/07 14:34:28;;;;;;;;;;;;;;;31.32;22.51;99843.84;5165378;27;34067;-91
2022/05/07 14:37:03;;;;;;;;;;;;;;;30.96;23.24;99836.53;5252010;27;33462;-91
2022/05/07 14:39:35;;;;;;;;;;;;;;;30.73;23.81;99836.00;5322039;27;34116;-92
2022/05/07 14:42:19;;;;;;;;;;;;;;;30.66;23.17;99839.44;5314318;27;34279;-92
2022/05/07 14:45:00;;;;;;;;;;;;;;;30.58;23.37;99835.63;5314810;27;34372;-93
2022/05/07 14:47:31;;;;;;;;;;;;;;;30.05;23.85;99830.78;5314268;26;33342;-92
2022/05/07 14:50:00;;;;;;;;;;;;;;;29.81;23.73;99836.56;5317255;27;34158;-92
2022/05/07 14:52:29;;;;;;;;;;;;;;;29.48;24.43;99822.59;5358609;26;35095;-90
2022/05/07 14:55:01;;;;;;;;;;;;;;;29.13;25.36;99831.06;5365552;26;34446;-93
2022/05/07 14:57:30;;;;;;;;;;;;;;;29.08;25.37;99833.31;5383701;26;33087;-94
2022/05/07 15:00:01;;;;;;;;;;;;;;;28.87;24.88;99834.16;5405132;26;34715;-92
2022/05/07 15:02:31;;;;;;;;;;;;;;;28.79;24.63;99831.34;5406028;26;35113;-93
2022/05/07 15:04:59;;;;;;;;;;;;;;;28.56;25.11;99825.34;5411224;26;34460;-94
2022/05/07 15:07:36;;;;;;;;;;;;;;;28.50;25.89;99831.19;5390906;26;31943;-94
2022/05/07 15:12:52;;;;;;;;;;;;;;;28.39;26.24;99831.22;5392737;26;34369;-92
2022/05/07 15:15:20;;;;;;;;;;;;;;;28.24;26.90;99825.37;5408560;26;33519;-94
2022/05/07 15:17:49;;;;;;;;;;;;;;;28.31;26.76;99829.22;5406084;26;33940;-94
2022/05/07 15:20:18;;;;;;;;;;;;;;;28.29;26.68;99826.69;5406011;26;34979;-93
2022/05/07 15:22:47;;;;;;;;;;;;;;;28.23;26.47;99831.69;5412723;26;34140;-93
2022/05/07 15:25:18;;;;;;;;;;;;;;;28.30;26.52;99831.03;5405188;26;34690;-94
2022/05/07 15:27:47;;;;;;;;;;;;;;;28.16;27.00;99831.34;5404479;26;33775;-90
2022/05/07 15:30:17;;;;;;;;;;;;;;;28.06;26.83;99822.44;5407295;26;34191;-91
2022/05/07 15:38:18;;;;;;;;;;;;;;;27.76;28.24;99833.81;5383465;26;32686;-93
2022/05/07 15:40:50;;;;;;;;;;;;;;;27.91;27.73;99821.91;5410534;26;34578;-92
2022/05/07 15:43:19;;;;;;;;;;;;;;;27.76;27.22;99821.31;5404197;26;33713;-93
2022/05/07 15:45:47;;;;;;;;;;;;;;;27.98;28.36;99825.75;5404120;26;34206;-93
2022/05/07 15:48:16;;;;;;;;;;;;;;;28.03;28.86;99818.22;5406088;26;33098;-93
2022/05/07 15:50:44;;;;;;;;;;;;;;;28.07;28.91;99827.63;5404648;26;34383;-93
2022/05/07 15:53:13;;;;;;;;;;;;;;;28.21;28.44;99820.31;5411561;26;34977;-92
2022/05/07 15:55:42;;;;;;;;;;;;;;;28.11;26.65;99820.25;5404221;26;34196;-93
2022/05/07 15:58:33;;;;;;;;;;;;;;;28.28;27.58;99822.31;5404408;26;33456;-93
2022/05/07 16:01:01;;;;;;;;;;;;;;;28.38;27.10;99811.69;5404709;26;34821;-93
2022/05/07 16:03:30;;;;;;;;;;;;;;;28.57;27.16;99816.34;5404619;26;33518;-92
2022/05/07 16:05:59;;;;;;;;;;;;;;;28.64;25.76;99819.31;5405638;26;34481;-92
2022/05/07 16:18:05;;;;;;;;;;;;;;;28.73;26.07;99805.19;5384503;26;35349;-92
2022/05/07 16:20:48;;;;;;;;;;;;;;;28.88;26.63;99813.66;5366400;26;31884;-93
2022/05/07 16:26:40;;;;;;;;;;;;;;;29.05;27.36;99807.69;5360665;26;35320;-93
2022/05/07 16:35:54;;;;;;;;;;;;;;;29.08;25.60;99815.44;5388005;26;34557;31
2022/05/07 16:38:26;;;;;;;;;;;;;;;28.97;26.50;99815.53;5383666;26;34833;-93
2022/05/07 16:41:01;;;;;;;;;;;;;;;28.86;27.62;99816.47;5383719;26;34987;-93
2022/05/07 16:43:33;;;;;;;;;;;;;;;28.80;28.20;99813.47;5384415;26;33864;-93
2022/05/07 16:46:04;;;;;;;;;;;;;;;28.71;28.47;99816.00;5387919;26;35297;-93
2022/05/07 16:48:38;;;;;;;;;;;;;;;28.62;28.41;99816.78;5403345;26;34593;-92
2022/05/07 16:51:12;;;;;;;;;;;;;;;28.44;28.08;99821.84;5406202;26;34367;-92
2022/05/07 16:53:41;;;;;;;;;;;;;;;28.22;27.20;99829.97;5409637;26;34005;-90
2022/05/07 16:56:10;;;;;;;;;;;;;;;27.98;27.85;99824.91;5403326;26;34140;-93
2022/05/07 16:58:38;;;;;;;;;;;;;;;27.77;28.13;99833.69;5411395;26;34374;-92
2022/05/07 17:01:07;;;;;;;;;;;;;;;27.57;28.53;99830.00;5386978;26;34003;-92
2022/05/07 17:03:36;;;;;;;;;;;;;;;27.45;27.63;99829.19;5406493;26;33635;-92
2022/05/07 17:06:04;;;;;;;;;;;;;;;27.22;28.34;99833.69;5404669;26;33631;-91
2022/05/07 17:08:34;;;;;;;;;;;;;;;27.06;28.77;99841.19;5403387;26;35183;-93
2022/05/07 17:11:04;;;;;;;;;;;;;;;26.83;28.56;99837.69;5403815;26;34476;-92
2022/05/07 17:13:33;;;;;;;;;;;;;;;26.74;29.11;99838.41;5409603;26;33511;-93
2022/05/07 17:16:01;;;;;;;;;;;;;;;26.49;29.51;99839.44;5403704;26;34918;-91
2022/05/07 17:18:32;;;;;;;;;;;;;;;26.38;29.51;99838.44;5405885;26;35017;-92
2022/05/07 17:21:01;;;;;;;;;;;;;;;26.22;29.42;99837.94;5402661;26;34731;-91
2022/05/07 17:23:29;;;;;;;;;;;;;;;26.04;29.70;99839.31;5404199;26;33700;-90
2022/05/07 17:25:59;;;;;;;;;;;;;;;25.99;29.82;99839.66;5410822;26;34350;-91
2022/05/07 17:28:29;;;;;;;;;;;;;;;25.80;30.19;99842.81;5404091;26;36473;-92
2022/05/07 17:30:57;;;;;;;;;;;;;;;25.54;30.68;99847.41;5403244;26;33981;-91
2022/05/07 17:33:27;;;;;;;;;;;;;;;25.49;30.69;99846.88;5400535;26;33951;-92
2022/05/07 17:35:57;;;;;;;;;;;;;;;25.30;31.42;99853.53;5402366;26;34943;-91
2022/05/07 17:38:25;;;;;;;;;;;;;;;24.99;31.98;99854.00;5406577;26;34594;-91
2022/05/07 17:40:53;;;;;;;;;;;;;;;24.98;32.22;99850.47;5400918;26;33982;-90
2022/05/07 17:43:29;;;;;;;;;;;;;;;24.79;32.56;99855.38;5401611;26;33326;-91
2022/05/07 17:45:57;;;;;;;;;;;;;;;24.67;32.81;99849.97;5401472;26;33274;-92
2022/05/07 17:51:12;;;;;;;;;;;;;;;24.30;33.59;99858.72;5401387;26;34353;-92
2022/05/07 17:53:41;;;;;;;;;;;;;;;24.11;33.77;99851.97;5387784;26;31853;-90
2022/05/07 17:56:09;;;;;;;;;;;;;;;23.93;33.89;99862.00;5403663;26;34809;-92
2022/05/07 17:58:39;;;;;;;;;;;;;;;23.76;34.08;99863.13;5402166;26;34421;-92
2022/05/07 18:01:08;;;;;;;;;;;;;;;23.73;35.78;99865.09;5401454;26;33580;-92
2022/05/07 18:03:43;;;;;;;;;;;;;;;23.58;35.86;99864.25;5401340;26;33493;-90
2022/05/07 18:06:11;;;;;;;;;;;;;;;23.38;35.82;99863.75;5405075;26;33858;-91
2022/05/07 18:08:40;;;;;;;;;;;;;;;;;;5408057;26;34612;-91
2022/05/07 18:11:08;;;;;;;;;;;;;;;23.05;36.90;99872.03;5402378;26;34436;-92
2022/05/07 18:13:37;;;;;;;;;;;;;;;22.94;36.82;99867.34;5402501;26;34116;-91
2022/05/07 18:16:06;;;;;;;;;;;;;;;22.74;36.76;99867.75;5402863;26;34071;-92
2022/05/07 18:18:36;;;;;;;;;;;;;;;22.77;36.92;99871.03;5401830;26;34441;-93
2022/05/07 18:21:07;;;;;;;;;;;;;;;22.60;37.68;99871.22;5407767;26;34522;-92
2022/05/07 18:23:36;;;;;;;;;;;;;;;22.48;37.75;99878.06;5402324;26;33507;-92
2022/05/07 18:26:04;;;;;;;;;;;;;;;22.49;38.36;99884.22;5403671;26;34263;-93
2022/05/07 18:28:33;;;;;;;;;;;;;;;22.48;38.16;99877.22;5402141;26;33916;-93
2022/05/07 18:31:03;;;;;;;;;;;;;;;22.23;37.64;99883.97;5380994;26;34569;-93
2022/05/07 18:33:34;;;;;;;;;;;;;;;22.34;38.25;99889.47;5408095;26;33413;-93
2022/05/07 18:44:50;;;;;;;;;;;;;;;21.86;40.08;99899.25;5267284;27;20029;-93
2022/05/07 18:47:48;;;;;;;;;;;;;;;21.81;39.77;99897.81;5261941;27;36792;-92
2022/05/07 18:50:19;;;;;;;;;;;;;;;21.63;39.39;99908.47;5269946;27;33991;-92
2022/05/07 18:52:48;;;;;;;;;;;;;;;21.50;40.23;99910.06;5268561;27;33103;-94
2022/05/07 18:58:21;;;;;;;;;;;;;;;21.20;40.94;99915.19;5274944;27;34183;-94
2022/05/07 19:00:50;;;;;;;;;;;;;;;20.97;41.82;99924.31;5275318;27;34152;-92
2022/05/07 19:03:19;;;;;;;;;;;;;;;20.84;41.48;99926.75;5270543;27;33708;-93